KVPS/VPS METAR and TAF weather

Enter ICAO airport designator
Station Type Date Time Source
KVPS METAR 2019/12/06 13:56 UTC NOAA

KVPS 061356Z 09005KT 10SM SCT046 12/06 A3017 RMK AO2 SLP224 T01240062 51012 $


Station Type Date Time Source
KVPS Decoded METAR 2019/12/06 13:56 UTC NOAA

Valparaiso / Eglin Air Force Base, FL, United States (KVPS) 30-29N 086-31W 29M
Dec 06, 2019 - 08:56 AM EST / 2019.12.06 1356 UTC
Wind: from the E (090 degrees) at 6 MPH (5 KT):0
Visibility: 10 mile(s):0
Sky conditions: partly cloudy
Temperature: 54.3 F (12.4 C)
Dew Point: 43.2 F (6.2 C)
Relative Humidity: 65%
Pressure (altimeter): 30.17 in. Hg (1021 hPa)
Pressure tendency: 0.04 inches (1.2 hPa) higher than three hours ago
ob: KVPS 061356Z 09005KT 10SM SCT046 12/06 A3017 RMK AO2 SLP224 T01240062 51012
cycle: 14

Station Type Date Time Source
KVPS TAF 2019/12/06 10:09 UTC NOAA

TAF KVPS 061000Z 0610/0716 08005KT 9999 SCT150 BKN200 QNH3010INS
BECMG 0612/0613 15009KT 9999 FEW025 BKN100 BKN200 QNH3007INS
BECMG 0616/0617 17009KT 9999 BKN020 BKN100 OVC200 QNH3005INS
BECMG 0620/0621 18009KT 9000 -SHRA BKN020 OVC090 QNH3004INS
BECMG 0702/0703 15006KT 9999 VCSH BKN015 OVC040 QNH3005INS
BECMG 0707/0708 06009KT 6000 BR BKN010 OVC030 QNH3008INS TX21/0620Z TN07/0611Z

Example: see airport list